sensor_id;sensor_type;location;lat;lon;timestamp;temperature;humidity
28969;DHT22;16076;51.194;6.642;2022-09-09T00:04:28;17.30;99.90
28969;DHT22;16076;51.194;6.642;2022-09-09T00:09:29;17.30;99.90
28969;DHT22;16076;51.194;6.642;2022-09-09T00:14:37;17.10;99.90
28969;DHT22;16076;51.194;6.642;2022-09-09T00:17:04;17.00;99.90
28969;DHT22;16076;51.194;6.642;2022-09-09T00:19:43;16.90;99.90
28969;DHT22;16076;51.194;6.642;2022-09-09T00:22:15;16.90;99.90
28969;DHT22;16076;51.194;6.642;2022-09-09T00:24:43;16.80;99.90
28969;DHT22;16076;51.194;6.642;2022-09-09T00:30:00;16.70;99.90
28969;DHT22;16076;51.194;6.642;2022-09-09T00:32:30;16.80;99.90
28969;DHT22;16076;51.194;6.642;2022-09-09T00:35:00;16.90;99.90
28969;DHT22;16076;51.194;6.642;2022-09-09T00:37:28;17.00;99.90
28969;DHT22;16076;51.194;6.642;2022-09-09T00:39:55;17.00;99.90
28969;DHT22;16076;51.194;6.642;2022-09-09T00:42:36;17.00;99.90
28969;DHT22;16076;51.194;6.642;2022-09-09T00:45:25;17.10;99.90
28969;DHT22;16076;51.194;6.642;2022-09-09T00:47:54;17.10;99.90
28969;DHT22;16076;51.194;6.642;2022-09-09T00:50:35;17.00;99.90
28969;DHT22;16076;51.194;6.642;2022-09-09T00:58:06;16.80;99.90
28969;DHT22;16076;51.194;6.642;2022-09-09T01:03:10;16.50;99.90
28969;DHT22;16076;51.194;6.642;2022-09-09T01:05:49;16.40;99.90
28969;DHT22;16076;51.194;6.642;2022-09-09T01:10:52;16.30;99.90
28969;DHT22;16076;51.194;6.642;2022-09-09T01:13:30;16.30;99.90
28969;DHT22;16076;51.194;6.642;2022-09-09T01:15:57;16.30;99.90
28969;DHT22;16076;51.194;6.642;2022-09-09T01:18:26;16.30;99.90
28969;DHT22;16076;51.194;6.642;2022-09-09T01:23:23;16.30;99.90
28969;DHT22;16076;51.194;6.642;2022-09-09T01:26:12;16.30;99.90
28969;DHT22;16076;51.194;6.642;2022-09-09T01:28:40;16.30;99.90
28969;DHT22;16076;51.194;6.642;2022-09-09T01:31:06;16.40;99.90
28969;DHT22;16076;51.194;6.642;2022-09-09T01:33:32;16.40;99.90
28969;DHT22;16076;51.194;6.642;2022-09-09T01:35:59;16.50;99.90
28969;DHT22;16076;51.194;6.642;2022-09-09T01:38:27;16.50;99.90
28969;DHT22;16076;51.194;6.642;2022-09-09T01:40:53;16.60;99.90
28969;DHT22;16076;51.194;6.642;2022-09-09T01:43:22;16.60;99.90
28969;DHT22;16076;51.194;6.642;2022-09-09T01:45:49;16.60;99.90
28969;DHT22;16076;51.194;6.642;2022-09-09T01:48:15;16.50;99.90
28969;DHT22;16076;51.194;6.642;2022-09-09T01:50:42;16.50;99.90
28969;DHT22;16076;51.194;6.642;2022-09-09T01:53:07;16.50;99.90
28969;DHT22;16076;51.194;6.642;2022-09-09T01:55:36;16.60;99.90
28969;DHT22;16076;51.194;6.642;2022-09-09T02:00:38;16.80;99.90
28969;DHT22;16076;51.194;6.642;2022-09-09T02:03:27;16.90;99.90
28969;DHT22;16076;51.194;6.642;2022-09-09T02:06:10;16.90;99.90
28969;DHT22;16076;51.194;6.642;2022-09-09T02:08:42;17.00;99.90
28969;DHT22;16076;51.194;6.642;2022-09-09T02:11:11;17.00;99.90
28969;DHT22;16076;51.194;6.642;2022-09-09T02:13:37;17.00;99.90
28969;DHT22;16076;51.194;6.642;2022-09-09T02:16:06;17.00;99.90
28969;DHT22;16076;51.194;6.642;2022-09-09T02:21:04;17.20;99.90
28969;DHT22;16076;51.194;6.642;2022-09-09T02:23:31;17.20;99.90
28969;DHT22;16076;51.194;6.642;2022-09-09T02:25:57;17.30;99.90
28969;DHT22;16076;51.194;6.642;2022-09-09T02:28:26;17.30;99.90
28969;DHT22;16076;51.194;6.642;2022-09-09T02:30:54;17.30;99.90
28969;DHT22;16076;51.194;6.642;2022-09-09T02:33:24;17.40;99.90
28969;DHT22;16076;51.194;6.642;2022-09-09T02:35:51;17.40;99.90
28969;DHT22;16076;51.194;6.642;2022-09-09T02:38:18;17.50;99.90
28969;DHT22;16076;51.194;6.642;2022-09-09T02:40:45;17.50;99.90
28969;DHT22;16076;51.194;6.642;2022-09-09T02:43:11;17.50;99.90
28969;DHT22;16076;51.194;6.642;2022-09-09T02:45:40;17.50;99.90
28969;DHT22;16076;51.194;6.642;2022-09-09T02:50:33;17.50;99.90
28969;DHT22;16076;51.194;6.642;2022-09-09T02:58:10;17.50;99.90
28969;DHT22;16076;51.194;6.642;2022-09-09T03:00:38;17.40;99.90
28969;DHT22;16076;51.194;6.642;2022-09-09T03:03:05;17.30;99.90
28969;DHT22;16076;51.194;6.642;2022-09-09T03:05:31;17.40;99.90
28969;DHT22;16076;51.194;6.642;2022-09-09T03:07:57;17.40;99.90
28969;DHT22;16076;51.194;6.642;2022-09-09T03:10:23;17.40;99.90
28969;DHT22;16076;51.194;6.642;2022-09-09T03:12:49;17.40;99.90
28969;DHT22;16076;51.194;6.642;2022-09-09T03:15:15;17.40;99.90
28969;DHT22;16076;51.194;6.642;2022-09-09T03:17:41;17.30;99.90
28969;DHT22;16076;51.194;6.642;2022-09-09T03:20:07;17.30;99.90
28969;DHT22;16076;51.194;6.642;2022-09-09T03:22:35;17.30;99.90
28969;DHT22;16076;51.194;6.642;2022-09-09T03:25:01;17.30;99.90
28969;DHT22;16076;51.194;6.642;2022-09-09T03:27:28;17.40;99.90
28969;DHT22;16076;51.194;6.642;2022-09-09T03:29:53;17.30;99.90
28969;DHT22;16076;51.194;6.642;2022-09-09T03:32:20;17.30;99.90
28969;DHT22;16076;51.194;6.642;2022-09-09T03:34:48;17.20;99.90
28969;DHT22;16076;51.194;6.642;2022-09-09T03:37:16;17.10;99.90
28969;DHT22;16076;51.194;6.642;2022-09-09T03:39:43;17.00;99.90
28969;DHT22;16076;51.194;6.642;2022-09-09T03:42:08;17.00;99.90
28969;DHT22;16076;51.194;6.642;2022-09-09T03:44:34;16.90;99.90
28969;DHT22;16076;51.194;6.642;2022-09-09T03:46:59;16.80;99.90
28969;DHT22;16076;51.194;6.642;2022-09-09T03:49:26;16.70;99.90
28969;DHT22;16076;51.194;6.642;2022-09-09T03:51:54;16.70;99.90
28969;DHT22;16076;51.194;6.642;2022-09-09T03:54:20;16.70;99.90
28969;DHT22;16076;51.194;6.642;2022-09-09T03:56:45;16.70;99.90
28969;DHT22;16076;51.194;6.642;2022-09-09T03:59:11;16.70;99.90
28969;DHT22;16076;51.194;6.642;2022-09-09T04:01:37;16.60;99.90
28969;DHT22;16076;51.194;6.642;2022-09-09T04:04:02;16.70;99.90
28969;DHT22;16076;51.194;6.642;2022-09-09T04:06:28;16.70;99.90
28969;DHT22;16076;51.194;6.642;2022-09-09T04:08:54;16.70;99.90
28969;DHT22;16076;51.194;6.642;2022-09-09T04:11:20;16.70;99.90
28969;DHT22;16076;51.194;6.642;2022-09-09T04:13:47;16.70;99.90
28969;DHT22;16076;51.194;6.642;2022-09-09T04:16:13;16.80;99.90
28969;DHT22;16076;51.194;6.642;2022-09-09T04:18:38;16.80;99.90
28969;DHT22;16076;51.194;6.642;2022-09-09T04:21:04;16.90;99.90
28969;DHT22;16076;51.194;6.642;2022-09-09T04:23:31;17.00;99.90
28969;DHT22;16076;51.194;6.642;2022-09-09T04:25:59;17.00;99.90
28969;DHT22;16076;51.194;6.642;2022-09-09T04:28:25;17.00;99.90
28969;DHT22;16076;51.194;6.642;2022-09-09T04:30:51;17.10;99.90
28969;DHT22;16076;51.194;6.642;2022-09-09T04:33:17;17.10;99.90
28969;DHT22;16076;51.194;6.642;2022-09-09T04:35:44;17.20;99.90
28969;DHT22;16076;51.194;6.642;2022-09-09T04:38:10;17.20;99.90
28969;DHT22;16076;51.194;6.642;2022-09-09T04:40:35;17.30;99.90
28969;DHT22;16076;51.194;6.642;2022-09-09T04:43:02;17.30;99.90
28969;DHT22;16076;51.194;6.642;2022-09-09T04:45:30;17.30;99.90
28969;DHT22;16076;51.194;6.642;2022-09-09T04:47:55;17.30;99.90
28969;DHT22;16076;51.194;6.642;2022-09-09T04:50:21;17.40;99.90
28969;DHT22;16076;51.194;6.642;2022-09-09T04:52:46;17.40;99.90
28969;DHT22;16076;51.194;6.642;2022-09-09T04:55:14;17.50;99.90
28969;DHT22;16076;51.194;6.642;2022-09-09T04:57:40;17.50;99.90
28969;DHT22;16076;51.194;6.642;2022-09-09T05:00:06;17.50;99.90
28969;DHT22;16076;51.194;6.642;2022-09-09T05:02:32;17.60;99.90
28969;DHT22;16076;51.194;6.642;2022-09-09T05:04:58;17.60;99.90
28969;DHT22;16076;51.194;6.642;2022-09-09T05:07:24;17.70;99.90
28969;DHT22;16076;51.194;6.642;2022-09-09T05:09:51;17.70;99.90
28969;DHT22;16076;51.194;6.642;2022-09-09T05:12:17;17.70;99.90
28969;DHT22;16076;51.194;6.642;2022-09-09T05:14:43;17.70;99.90
28969;DHT22;16076;51.194;6.642;2022-09-09T05:17:09;17.70;99.90
28969;DHT22;16076;51.194;6.642;2022-09-09T05:19:35;17.70;99.90
28969;DHT22;16076;51.194;6.642;2022-09-09T05:22:00;17.80;99.90
28969;DHT22;16076;51.194;6.642;2022-09-09T05:24:26;17.80;99.90
28969;DHT22;16076;51.194;6.642;2022-09-09T05:26:52;17.80;99.90
28969;DHT22;16076;51.194;6.642;2022-09-09T05:29:17;17.80;99.90
28969;DHT22;16076;51.194;6.642;2022-09-09T05:31:45;17.80;99.90
28969;DHT22;16076;51.194;6.642;2022-09-09T05:34:10;17.80;99.90
28969;DHT22;16076;51.194;6.642;2022-09-09T05:36:36;17.90;99.90
28969;DHT22;16076;51.194;6.642;2022-09-09T05:39:02;17.90;99.90
28969;DHT22;16076;51.194;6.642;2022-09-09T05:41:28;18.00;99.90
28969;DHT22;16076;51.194;6.642;2022-09-09T05:43:54;18.10;99.90
28969;DHT22;16076;51.194;6.642;2022-09-09T05:46:21;18.10;99.90
28969;DHT22;16076;51.194;6.642;2022-09-09T05:48:47;18.20;99.90
28969;DHT22;16076;51.194;6.642;2022-09-09T05:51:14;18.20;99.90
28969;DHT22;16076;51.194;6.642;2022-09-09T05:53:43;18.30;99.90
28969;DHT22;16076;51.194;6.642;2022-09-09T05:56:10;18.30;99.90
28969;DHT22;16076;51.194;6.642;2022-09-09T05:58:36;18.40;99.90
28969;DHT22;16076;51.194;6.642;2022-09-09T06:01:44;18.40;99.90
28969;DHT22;16076;51.194;6.642;2022-09-09T06:03:51;18.50;99.90
28969;DHT22;16076;51.194;6.642;2022-09-09T06:06:21;18.40;99.90
28969;DHT22;16076;51.194;6.642;2022-09-09T06:08:47;18.50;99.90
28969;DHT22;16076;51.194;6.642;2022-09-09T06:11:24;18.50;99.90
28969;DHT22;16076;51.194;6.642;2022-09-09T06:13:49;18.60;99.90
28969;DHT22;16076;51.194;6.642;2022-09-09T06:16:20;18.60;99.90
28969;DHT22;16076;51.194;6.642;2022-09-09T06:18:48;18.60;99.90
28969;DHT22;16076;51.194;6.642;2022-09-09T06:21:15;18.60;99.90
28969;DHT22;16076;51.194;6.642;2022-09-09T06:23:41;18.60;99.90
28969;DHT22;16076;51.194;6.642;2022-09-09T06:28:39;18.70;99.90
28969;DHT22;16076;51.194;6.642;2022-09-09T06:31:09;18.80;99.90
28969;DHT22;16076;51.194;6.642;2022-09-09T06:33:36;18.80;99.90
28969;DHT22;16076;51.194;6.642;2022-09-09T06:36:04;18.80;99.90
28969;DHT22;16076;51.194;6.642;2022-09-09T06:38:30;18.90;99.90
28969;DHT22;16076;51.194;6.642;2022-09-09T06:40:57;19.00;99.90
28969;DHT22;16076;51.194;6.642;2022-09-09T06:43:23;19.00;99.90
28969;DHT22;16076;51.194;6.642;2022-09-09T06:45:53;19.10;99.90
28969;DHT22;16076;51.194;6.642;2022-09-09T06:48:19;19.20;99.90
28969;DHT22;16076;51.194;6.642;2022-09-09T06:50:47;19.40;99.90
28969;DHT22;16076;51.194;6.642;2022-09-09T06:53:18;19.60;99.90
28969;DHT22;16076;51.194;6.642;2022-09-09T06:55:45;19.80;99.90
28969;DHT22;16076;51.194;6.642;2022-09-09T06:58:13;20.10;99.90
28969;DHT22;16076;51.194;6.642;2022-09-09T07:00:41;20.30;99.90
28969;DHT22;16076;51.194;6.642;2022-09-09T07:03:07;20.40;99.90
28969;DHT22;16076;51.194;6.642;2022-09-09T07:05:33;20.40;99.90
28969;DHT22;16076;51.194;6.642;2022-09-09T07:07:58;20.40;99.90
28969;DHT22;16076;51.194;6.642;2022-09-09T07:10:24;20.40;99.90
28969;DHT22;16076;51.194;6.642;2022-09-09T07:12:50;20.50;99.90
28969;DHT22;16076;51.194;6.642;2022-09-09T07:15:16;20.40;99.90
28969;DHT22;16076;51.194;6.642;2022-09-09T07:17:44;20.30;99.90
28969;DHT22;16076;51.194;6.642;2022-09-09T07:20:09;20.20;99.90
28969;DHT22;16076;51.194;6.642;2022-09-09T07:22:35;20.00;99.90
28969;DHT22;16076;51.194;6.642;2022-09-09T07:25:01;19.90;99.90
28969;DHT22;16076;51.194;6.642;2022-09-09T07:27:28;19.90;99.90
28969;DHT22;16076;51.194;6.642;2022-09-09T07:29:53;20.00;99.90
28969;DHT22;16076;51.194;6.642;2022-09-09T07:32:19;20.10;99.90
28969;DHT22;16076;51.194;6.642;2022-09-09T07:34:45;20.20;99.90
28969;DHT22;16076;51.194;6.642;2022-09-09T07:37:12;20.30;99.90
28969;DHT22;16076;51.194;6.642;2022-09-09T07:39:39;20.20;99.90
28969;DHT22;16076;51.194;6.642;2022-09-09T07:42:04;20.10;99.90
28969;DHT22;16076;51.194;6.642;2022-09-09T07:44:30;19.90;99.90
28969;DHT22;16076;51.194;6.642;2022-09-09T07:47:00;20.00;99.90
28969;DHT22;16076;51.194;6.642;2022-09-09T07:49:25;19.90;99.90
28969;DHT22;16076;51.194;6.642;2022-09-09T07:51:51;19.90;99.90
28969;DHT22;16076;51.194;6.642;2022-09-09T07:54:18;20.00;99.90
28969;DHT22;16076;51.194;6.642;2022-09-09T07:56:49;20.10;99.90
28969;DHT22;16076;51.194;6.642;2022-09-09T07:59:15;20.20;99.90
28969;DHT22;16076;51.194;6.642;2022-09-09T08:01:42;20.30;99.90
28969;DHT22;16076;51.194;6.642;2022-09-09T08:04:09;20.40;99.90
28969;DHT22;16076;51.194;6.642;2022-09-09T08:06:37;20.60;99.90
28969;DHT22;16076;51.194;6.642;2022-09-09T08:09:05;20.70;99.90
28969;DHT22;16076;51.194;6.642;2022-09-09T08:11:34;20.90;99.90
28969;DHT22;16076;51.194;6.642;2022-09-09T08:14:01;21.10;99.90
28969;DHT22;16076;51.194;6.642;2022-09-09T08:16:28;21.40;99.90
28969;DHT22;16076;51.194;6.642;2022-09-09T08:18:57;21.50;99.90
28969;DHT22;16076;51.194;6.642;2022-09-09T08:21:26;21.50;99.90
28969;DHT22;16076;51.194;6.642;2022-09-09T08:23:53;21.50;99.90
28969;DHT22;16076;51.194;6.642;2022-09-09T08:26:20;21.60;99.90
28969;DHT22;16076;51.194;6.642;2022-09-09T08:28:50;21.60;99.90
28969;DHT22;16076;51.194;6.642;2022-09-09T08:31:20;21.70;99.90
28969;DHT22;16076;51.194;6.642;2022-09-09T08:33:46;21.80;99.90
28969;DHT22;16076;51.194;6.642;2022-09-09T08:36:13;22.00;99.90
28969;DHT22;16076;51.194;6.642;2022-09-09T08:38:40;22.40;99.90
28969;DHT22;16076;51.194;6.642;2022-09-09T08:43:37;23.20;99.90
28969;DHT22;16076;51.194;6.642;2022-09-09T08:49:02;23.60;99.90
28969;DHT22;16076;51.194;6.642;2022-09-09T08:51:29;23.80;99.90
28969;DHT22;16076;51.194;6.642;2022-09-09T08:53:56;23.80;99.90
28969;DHT22;16076;51.194;6.642;2022-09-09T08:56:26;23.80;99.90
28969;DHT22;16076;51.194;6.642;2022-09-09T08:58:55;23.90;99.90
28969;DHT22;16076;51.194;6.642;2022-09-09T09:11:39;24.20;99.00
28969;DHT22;16076;51.194;6.642;2022-09-09T09:16:54;24.00;99.60
28969;DHT22;16076;51.194;6.642;2022-09-09T09:19:24;23.90;99.70
28969;DHT22;16076;51.194;6.642;2022-09-09T09:22:04;23.70;99.90
28969;DHT22;16076;51.194;6.642;2022-09-09T09:26:59;23.30;98.40
28969;DHT22;16076;51.194;6.642;2022-09-09T09:29:26;23.10;99.60
28969;DHT22;16076;51.194;6.642;2022-09-09T09:31:53;22.90;99.40
28969;DHT22;16076;51.194;6.642;2022-09-09T09:34:20;22.70;99.80
28969;DHT22;16076;51.194;6.642;2022-09-09T09:36:58;22.60;99.90
28969;DHT22;16076;51.194;6.642;2022-09-09T09:39:28;22.40;99.90
28969;DHT22;16076;51.194;6.642;2022-09-09T09:41:54;22.40;99.90
28969;DHT22;16076;51.194;6.642;2022-09-09T09:46:48;22.20;99.90
28969;DHT22;16076;51.194;6.642;2022-09-09T09:49:14;22.10;99.90
28969;DHT22;16076;51.194;6.642;2022-09-09T09:51:40;22.10;99.90
28969;DHT22;16076;51.194;6.642;2022-09-09T09:54:14;22.20;99.90
28969;DHT22;16076;51.194;6.642;2022-09-09T09:56:44;22.50;99.90
28969;DHT22;16076;51.194;6.642;2022-09-09T10:01:54;23.10;99.50
28969;DHT22;16076;51.194;6.642;2022-09-09T10:04:31;23.30;98.70
28969;DHT22;16076;51.194;6.642;2022-09-09T10:06:58;23.40;99.50
28969;DHT22;16076;51.194;6.642;2022-09-09T10:09:35;23.50;99.90
28969;DHT22;16076;51.194;6.642;2022-09-09T10:19:41;24.70;97.00
28969;DHT22;16076;51.194;6.642;2022-09-09T10:32:48;25.00;95.80
28969;DHT22;16076;51.194;6.642;2022-09-09T10:35:24;24.90;95.70
28969;DHT22;16076;51.194;6.642;2022-09-09T10:42:56;25.00;96.20
28969;DHT22;16076;51.194;6.642;2022-09-09T10:45:28;25.10;96.10
28969;DHT22;16076;51.194;6.642;2022-09-09T10:55:48;24.50;95.60
28969;DHT22;16076;51.194;6.642;2022-09-09T10:58:30;24.40;95.80
28969;DHT22;16076;51.194;6.642;2022-09-09T11:01:02;24.50;96.80
28969;DHT22;16076;51.194;6.642;2022-09-09T11:03:33;24.60;96.70
28969;DHT22;16076;51.194;6.642;2022-09-09T11:06:04;24.80;96.10
28969;DHT22;16076;51.194;6.642;2022-09-09T11:08:31;24.80;95.90
28969;DHT22;16076;51.194;6.642;2022-09-09T11:11:13;24.70;94.60
28969;DHT22;16076;51.194;6.642;2022-09-09T11:13:52;24.40;96.10
28969;DHT22;16076;51.194;6.642;2022-09-09T11:21:47;24.60;96.90
28969;DHT22;16076;51.194;6.642;2022-09-09T11:24:26;24.50;96.70
28969;DHT22;16076;51.194;6.642;2022-09-09T11:26:55;24.40;96.70
28969;DHT22;16076;51.194;6.642;2022-09-09T11:40:24;24.80;96.50
28969;DHT22;16076;51.194;6.642;2022-09-09T11:43:08;25.00;95.90
28969;DHT22;16076;51.194;6.642;2022-09-09T11:45:35;25.10;95.90
28969;DHT22;16076;51.194;6.642;2022-09-09T11:48:04;25.20;96.20
28969;DHT22;16076;51.194;6.642;2022-09-09T11:50:37;25.30;96.00
28969;DHT22;16076;51.194;6.642;2022-09-09T11:53:18;25.10;95.50
28969;DHT22;16076;51.194;6.642;2022-09-09T11:55:46;25.10;95.90
28969;DHT22;16076;51.194;6.642;2022-09-09T12:03:03;25.10;96.40
28969;DHT22;16076;51.194;6.642;2022-09-09T12:05:38;25.30;96.20
28969;DHT22;16076;51.194;6.642;2022-09-09T12:08:07;25.40;96.40
28969;DHT22;16076;51.194;6.642;2022-09-09T12:10:35;25.50;95.60
28969;DHT22;16076;51.194;6.642;2022-09-09T12:13:19;25.50;95.30
28969;DHT22;16076;51.194;6.642;2022-09-09T12:15:55;25.70;95.70
28969;DHT22;16076;51.194;6.642;2022-09-09T12:18:25;25.90;95.00
28969;DHT22;16076;51.194;6.642;2022-09-09T12:20:57;26.20;94.50
28969;DHT22;16076;51.194;6.642;2022-09-09T12:28:18;26.20;94.10
28969;DHT22;16076;51.194;6.642;2022-09-09T12:33:35;25.60;94.20
28969;DHT22;16076;51.194;6.642;2022-09-09T12:36:02;25.30;95.00
28969;DHT22;16076;51.194;6.642;2022-09-09T12:38:36;25.20;94.70
28969;DHT22;16076;51.194;6.642;2022-09-09T12:41:02;24.90;94.90
28969;DHT22;16076;51.194;6.642;2022-09-09T12:43:28;24.60;95.80
28969;DHT22;16076;51.194;6.642;2022-09-09T12:45:56;24.20;96.60
28969;DHT22;16076;51.194;6.642;2022-09-09T12:48:31;23.90;97.90
28969;DHT22;16076;51.194;6.642;2022-09-09T12:50:58;23.60;97.60
28969;DHT22;16076;51.194;6.642;2022-09-09T12:53:31;23.30;99.90
28969;DHT22;16076;51.194;6.642;2022-09-09T12:58:27;22.90;99.90
28969;DHT22;16076;51.194;6.642;2022-09-09T13:00:58;22.60;99.90
28969;DHT22;16076;51.194;6.642;2022-09-09T13:03:25;22.50;99.90
28969;DHT22;16076;51.194;6.642;2022-09-09T13:05:51;22.60;99.90
28969;DHT22;16076;51.194;6.642;2022-09-09T13:08:17;22.80;99.90
28969;DHT22;16076;51.194;6.642;2022-09-09T13:10:51;23.10;99.90
28969;DHT22;16076;51.194;6.642;2022-09-09T13:13:24;23.30;99.90
28969;DHT22;16076;51.194;6.642;2022-09-09T13:15:54;23.70;99.90
28969;DHT22;16076;51.194;6.642;2022-09-09T13:18:27;24.10;99.90
28969;DHT22;16076;51.194;6.642;2022-09-09T13:20:53;24.50;99.90
28969;DHT22;16076;51.194;6.642;2022-09-09T13:23:19;24.80;99.90
28969;DHT22;16076;51.194;6.642;2022-09-09T13:25:56;25.10;99.90
28969;DHT22;16076;51.194;6.642;2022-09-09T13:28:23;25.60;99.90
28969;DHT22;16076;51.194;6.642;2022-09-09T13:31:00;25.90;98.30
28969;DHT22;16076;51.194;6.642;2022-09-09T13:33:29;26.70;97.70
28969;DHT22;16076;51.194;6.642;2022-09-09T13:38:23;27.60;93.80
28969;DHT22;16076;51.194;6.642;2022-09-09T13:40:54;27.00;93.20
28969;DHT22;16076;51.194;6.642;2022-09-09T13:43:21;26.00;94.50
28969;DHT22;16076;51.194;6.642;2022-09-09T13:45:58;25.30;96.00
28969;DHT22;16076;51.194;6.642;2022-09-09T13:48:24;24.70;96.40
28969;DHT22;16076;51.194;6.642;2022-09-09T13:51:01;24.20;98.50
28969;DHT22;16076;51.194;6.642;2022-09-09T13:53:27;23.70;99.90
28969;DHT22;16076;51.194;6.642;2022-09-09T13:55:52;24.20;99.90
28969;DHT22;16076;51.194;6.642;2022-09-09T13:58:18;25.60;99.90
28969;DHT22;16076;51.194;6.642;2022-09-09T14:00:44;27.10;99.90
28969;DHT22;16076;51.194;6.642;2022-09-09T14:03:10;28.50;96.30
28969;DHT22;16076;51.194;6.642;2022-09-09T14:05:36;30.10;93.80
28969;DHT22;16076;51.194;6.642;2022-09-09T14:08:04;31.50;91.20
28969;DHT22;16076;51.194;6.642;2022-09-09T14:10:31;32.30;84.50
28969;DHT22;16076;51.194;6.642;2022-09-09T14:12:57;32.80;82.70
28969;DHT22;16076;51.194;6.642;2022-09-09T14:15:22;32.20;79.50
28969;DHT22;16076;51.194;6.642;2022-09-09T14:17:48;31.00;82.10
28969;DHT22;16076;51.194;6.642;2022-09-09T14:20:16;29.60;85.30
28969;DHT22;16076;51.194;6.642;2022-09-09T14:22:44;28.00;85.30
28969;DHT22;16076;51.194;6.642;2022-09-09T14:25:12;26.10;88.00
28969;DHT22;16076;51.194;6.642;2022-09-09T14:27:40;24.50;92.00
28969;DHT22;16076;51.194;6.642;2022-09-09T14:30:07;23.10;92.80
28969;DHT22;16076;51.194;6.642;2022-09-09T14:32:33;22.10;97.10
28969;DHT22;16076;51.194;6.642;2022-09-09T14:34:59;21.30;99.90
28969;DHT22;16076;51.194;6.642;2022-09-09T14:37:27;20.70;99.90
28969;DHT22;16076;51.194;6.642;2022-09-09T14:39:56;20.10;99.90
28969;DHT22;16076;51.194;6.642;2022-09-09T14:42:28;19.60;99.90
28969;DHT22;16076;51.194;6.642;2022-09-09T14:45:14;18.90;99.90
28969;DHT22;16076;51.194;6.642;2022-09-09T14:47:41;18.10;99.90
28969;DHT22;16076;51.194;6.642;2022-09-09T14:50:07;17.80;99.90
28969;DHT22;16076;51.194;6.642;2022-09-09T14:52:33;17.50;99.90
28969;DHT22;16076;51.194;6.642;2022-09-09T14:54:59;17.40;99.90
28969;DHT22;16076;51.194;6.642;2022-09-09T14:57:27;17.40;99.90
28969;DHT22;16076;51.194;6.642;2022-09-09T14:59:52;17.40;99.90
28969;DHT22;16076;51.194;6.642;2022-09-09T15:02:18;17.30;99.90
28969;DHT22;16076;51.194;6.642;2022-09-09T15:04:44;17.40;99.90
28969;DHT22;16076;51.194;6.642;2022-09-09T15:07:09;17.50;99.90
28969;DHT22;16076;51.194;6.642;2022-09-09T15:09:38;17.70;99.90
28969;DHT22;16076;51.194;6.642;2022-09-09T15:12:04;18.00;99.90
28969;DHT22;16076;51.194;6.642;2022-09-09T15:14:29;18.30;99.90
28969;DHT22;16076;51.194;6.642;2022-09-09T15:16:56;18.80;99.90
28969;DHT22;16076;51.194;6.642;2022-09-09T15:19:21;19.30;99.90
28969;DHT22;16076;51.194;6.642;2022-09-09T15:21:47;19.80;99.90
28969;DHT22;16076;51.194;6.642;2022-09-09T15:24:13;20.30;99.90
28969;DHT22;16076;51.194;6.642;2022-09-09T15:26:38;20.80;99.90
28969;DHT22;16076;51.194;6.642;2022-09-09T15:29:04;21.20;99.90
28969;DHT22;16076;51.194;6.642;2022-09-09T15:31:30;21.50;99.90
28969;DHT22;16076;51.194;6.642;2022-09-09T15:34:00;21.70;99.90
28969;DHT22;16076;51.194;6.642;2022-09-09T15:36:27;21.90;99.90
28969;DHT22;16076;51.194;6.642;2022-09-09T15:38:54;21.90;99.90
28969;DHT22;16076;51.194;6.642;2022-09-09T15:41:20;22.00;99.90
28969;DHT22;16076;51.194;6.642;2022-09-09T15:43:50;22.00;99.90
28969;DHT22;16076;51.194;6.642;2022-09-09T15:48:41;21.80;99.90
28969;DHT22;16076;51.194;6.642;2022-09-09T15:51:09;21.70;99.90
28969;DHT22;16076;51.194;6.642;2022-09-09T15:53:36;21.70;99.90
28969;DHT22;16076;51.194;6.642;2022-09-09T15:56:02;21.60;99.90
28969;DHT22;16076;51.194;6.642;2022-09-09T15:58:31;21.50;99.90
28969;DHT22;16076;51.194;6.642;2022-09-09T16:01:02;21.40;99.90
28969;DHT22;16076;51.194;6.642;2022-09-09T16:03:35;21.50;99.90
28969;DHT22;16076;51.194;6.642;2022-09-09T16:06:01;21.70;99.90
28969;DHT22;16076;51.194;6.642;2022-09-09T16:08:36;21.60;99.90
28969;DHT22;16076;51.194;6.642;2022-09-09T16:11:06;21.50;99.90
28969;DHT22;16076;51.194;6.642;2022-09-09T16:13:35;21.20;99.90
28969;DHT22;16076;51.194;6.642;2022-09-09T16:16:01;21.00;99.90
28969;DHT22;16076;51.194;6.642;2022-09-09T16:18:32;20.90;99.90
28969;DHT22;16076;51.194;6.642;2022-09-09T16:20:57;20.60;99.90
28969;DHT22;16076;51.194;6.642;2022-09-09T16:23:23;20.50;99.90
28969;DHT22;16076;51.194;6.642;2022-09-09T16:25:55;20.30;99.90
28969;DHT22;16076;51.194;6.642;2022-09-09T16:28:21;20.20;99.90
28969;DHT22;16076;51.194;6.642;2022-09-09T16:30:47;20.00;99.90
28969;DHT22;16076;51.194;6.642;2022-09-09T16:33:13;20.00;99.90
28969;DHT22;16076;51.194;6.642;2022-09-09T16:35:41;19.90;99.90
28969;DHT22;16076;51.194;6.642;2022-09-09T16:38:07;19.90;99.90
28969;DHT22;16076;51.194;6.642;2022-09-09T16:40:36;20.00;99.90
28969;DHT22;16076;51.194;6.642;2022-09-09T16:43:04;20.10;99.90
28969;DHT22;16076;51.194;6.642;2022-09-09T16:45:31;20.20;99.90
28969;DHT22;16076;51.194;6.642;2022-09-09T16:47:59;20.40;99.90
28969;DHT22;16076;51.194;6.642;2022-09-09T16:50:25;20.30;99.90
28969;DHT22;16076;51.194;6.642;2022-09-09T16:52:51;20.30;99.90
28969;DHT22;16076;51.194;6.642;2022-09-09T16:55:17;20.40;99.90
28969;DHT22;16076;51.194;6.642;2022-09-09T16:57:46;20.40;99.90
28969;DHT22;16076;51.194;6.642;2022-09-09T17:03:17;20.50;99.90
28969;DHT22;16076;51.194;6.642;2022-09-09T17:05:42;20.50;99.90
28969;DHT22;16076;51.194;6.642;2022-09-09T17:08:09;20.50;99.90
28969;DHT22;16076;51.194;6.642;2022-09-09T17:10:39;20.50;99.90
28969;DHT22;16076;51.194;6.642;2022-09-09T17:13:05;20.60;99.90
28969;DHT22;16076;51.194;6.642;2022-09-09T17:15:30;20.60;99.90
28969;DHT22;16076;51.194;6.642;2022-09-09T17:17:56;20.50;99.90
28969;DHT22;16076;51.194;6.642;2022-09-09T17:20:21;20.40;99.90
28969;DHT22;16076;51.194;6.642;2022-09-09T17:22:47;20.40;99.90
28969;DHT22;16076;51.194;6.642;2022-09-09T17:25:13;20.40;99.90
28969;DHT22;16076;51.194;6.642;2022-09-09T17:27:38;20.30;99.90
28969;DHT22;16076;51.194;6.642;2022-09-09T17:30:04;20.20;99.90
28969;DHT22;16076;51.194;6.642;2022-09-09T17:32:29;20.20;99.90
28969;DHT22;16076;51.194;6.642;2022-09-09T17:34:56;20.10;99.90
28969;DHT22;16076;51.194;6.642;2022-09-09T17:37:21;20.10;99.90
28969;DHT22;16076;51.194;6.642;2022-09-09T17:39:47;20.00;99.90
28969;DHT22;16076;51.194;6.642;2022-09-09T17:42:12;19.90;99.90
28969;DHT22;16076;51.194;6.642;2022-09-09T17:44:38;19.80;99.90
28969;DHT22;16076;51.194;6.642;2022-09-09T17:47:04;19.80;99.90
28969;DHT22;16076;51.194;6.642;2022-09-09T17:49:31;19.50;99.90
28969;DHT22;16076;51.194;6.642;2022-09-09T17:51:56;19.50;99.90